Wetterdaten: Woche 12.09.11 - 18.09.11 (KW37)
Datum Zeit Temperatur Luftfeuchte Luftdruck Niederschlag Windrichtung Sonnenschein Solar Wind
12.09.2011 00:00 14,8 C 97 % 1013,1 hPa 0,0 l/m SW 0,00 h 0 W/m 6,5 km/h (2 Bft)
12.09.2011 01:00 14,7 C 98 % 1013,2 hPa 0,0 l/m SW 0,00 h 0 W/m 10,3 km/h (2 Bft)
12.09.2011 02:00 15,0 C 98 % 1013,5 hPa 0,0 l/m W-SW 0,00 h 0 W/m 16,2 km/h (3 Bft)
12.09.2011 03:00 14,7 C 96 % 1013,6 hPa 0,0 l/m W-SW 0,00 h 0 W/m 14,0 km/h (3 Bft)
12.09.2011 04:00 14,3 C 96 % 1013,8 hPa 0,0 l/m SW 0,00 h 0 W/m 14,1 km/h (3 Bft)
12.09.2011 05:00 14,0 C 96 % 1013,9 hPa 0,0 l/m W-SW 0,00 h 0 W/m 11,7 km/h (2 Bft)
12.09.2011 06:00 13,9 C 95 % 1014,4 hPa 0,0 l/m W 0,00 h 6 W/m 10,9 km/h (2 Bft)
12.09.2011 07:00 13,8 C 95 % 1014,7 hPa 0,2 l/m W-SW 0,33 h 47 W/m 11,6 km/h (2 Bft)
12.09.2011 08:00 14,8 C 91 % 1015,4 hPa 0,0 l/m W-SW 1,00 h 226 W/m 13,2 km/h (3 Bft)
12.09.2011 09:00 15,8 C 85 % 1015,7 hPa 0,0 l/m W-SW 0,92 h 316 W/m 17,3 km/h (3 Bft)
12.09.2011 10:00 16,6 C 77 % 1016,0 hPa 0,0 l/m SW 1,00 h 543 W/m 22,0 km/h (4 Bft)
12.09.2011 11:00 17,6 C 71 % 1016,3 hPa 0,0 l/m W-SW 1,00 h 665 W/m 21,5 km/h (4 Bft)
12.09.2011 12:00 19,0 C 65 % 1016,0 hPa 0,0 l/m SW 1,00 h 741 W/m 22,1 km/h (4 Bft)
12.09.2011 13:00 20,1 C 58 % 1015,6 hPa 0,0 l/m W-SW 1,00 h 762 W/m 19,4 km/h (3 Bft)
12.09.2011 14:00 20,6 C 52 % 1015,4 hPa 0,0 l/m SW 1,00 h 727 W/m 23,3 km/h (4 Bft)
12.09.2011 15:00 21,1 C 54 % 1015,0 hPa 0,0 l/m W-SW 1,00 h 645 W/m 22,4 km/h (4 Bft)
12.09.2011 16:00 21,3 C 52 % 1014,7 hPa 0,0 l/m W-SW 1,00 h 523 W/m 20,2 km/h (4 Bft)
12.09.2011 17:00 21,2 C 52 % 1014,2 hPa 0,0 l/m W-SW 1,00 h 367 W/m 15,6 km/h (3 Bft)
12.09.2011 18:00 20,4 C 56 % 1014,2 hPa 0,0 l/m W 0,83 h 162 W/m 8,3 km/h (2 Bft)
12.09.2011 19:00 17,6 C 68 % 1014,2 hPa 0,0 l/m N 0,00 h 11 W/m 3,1 km/h (1 Bft)
12.09.2011 20:00 16,4 C 72 % 1014,6 hPa 0,0 l/m W-SW 0,00 h 0 W/m 7,1 km/h (2 Bft)
12.09.2011 21:00 15,9 C 77 % 1015,2 hPa 0,0 l/m W-SW 0,00 h 0 W/m 6,1 km/h (2 Bft)
12.09.2011 22:00 16,1 C 70 % 1015,6 hPa 0,0 l/m W-SW 0,00 h 0 W/m 10,7 km/h (2 Bft)
12.09.2011 23:00 16,2 C 67 % 1016,0 hPa 0,0 l/m W-SW 0,00 h 0 W/m 10,4 km/h (2 Bft)
13.09.2011 00:00 14,3 C 78 % 1016,2 hPa 0,0 l/m SW 0,00 h 0 W/m 5,1 km/h (1 Bft)
13.09.2011 01:00 13,3 C 86 % 1016,2 hPa 0,0 l/m SW 0,00 h 0 W/m 5,1 km/h (1 Bft)
13.09.2011 02:00 14,3 C 86 % 1016,1 hPa 0,0 l/m SW 0,00 h 0 W/m 9,7 km/h (2 Bft)
13.09.2011 03:00 13,6 C 90 % 1015,9 hPa 0,0 l/m SW 0,00 h 0 W/m 8,3 km/h (2 Bft)
13.09.2011 04:00 14,7 C 88 % 1015,6 hPa 0,0 l/m S-SW 0,00 h 0 W/m 10,9 km/h (2 Bft)
13.09.2011 05:00 14,5 C 91 % 1015,4 hPa 0,0 l/m S-SW 0,00 h 0 W/m 8,4 km/h (2 Bft)
13.09.2011 06:00 13,8 C 92 % 1015,1 hPa 0,0 l/m S-SW 0,00 h 5 W/m 9,0 km/h (2 Bft)
13.09.2011 07:00 13,1 C 94 % 1015,2 hPa 0,0 l/m SW 0,08 h 18 W/m 7,1 km/h (2 Bft)
13.09.2011 08:00 15,2 C 90 % 1015,3 hPa 0,0 l/m SW 0,00 h 33 W/m 10,7 km/h (2 Bft)
13.09.2011 09:00 17,4 C 84 % 1015,2 hPa 0,0 l/m SW 0,75 h 321 W/m 15,0 km/h (3 Bft)
13.09.2011 10:00 19,4 C 75 % 1015,2 hPa 0,0 l/m W-SW 0,42 h 301 W/m 19,7 km/h (3 Bft)
13.09.2011 11:00 20,8 C 69 % 1014,9 hPa 0,0 l/m W-NW 0,25 h 243 W/m 16,2 km/h (3 Bft)
13.09.2011 12:00 21,7 C 65 % 1014,4 hPa 0,0 l/m W-SW 0,42 h 395 W/m 18,9 km/h (3 Bft)
13.09.2011 13:00 22,6 C 63 % 1014,0 hPa 0,0 l/m W-SW 0,75 h 688 W/m 22,4 km/h (4 Bft)
13.09.2011 14:00 23,0 C 61 % 1013,8 hPa 0,0 l/m SW 0,75 h 695 W/m 19,0 km/h (3 Bft)
13.09.2011 15:00 23,2 C 59 % 1013,5 hPa 0,0 l/m W-SW 0,75 h 575 W/m 20,9 km/h (4 Bft)
13.09.2011 16:00 22,9 C 60 % 1013,4 hPa 0,0 l/m W 0,17 h 208 W/m 18,9 km/h (3 Bft)
13.09.2011 17:00 22,5 C 61 % 1013,2 hPa 0,2 l/m W-SW 0,08 h 140 W/m 18,0 km/h (3 Bft)
13.09.2011 18:00 21,4 C 65 % 1013,0 hPa 0,0 l/m W-SW 0,00 h 55 W/m 13,4 km/h (3 Bft)
13.09.2011 19:00 20,4 C 70 % 1013,1 hPa 0,0 l/m W-SW 0,00 h 11 W/m 9,9 km/h (2 Bft)
13.09.2011 20:00 19,9 C 74 % 1013,7 hPa 0,0 l/m W-SW 0,00 h 0 W/m 7,9 km/h (2 Bft)
13.09.2011 21:00 19,7 C 76 % 1014,0 hPa 0,0 l/m W 0,00 h 0 W/m 10,2 km/h (2 Bft)
13.09.2011 22:00 18,8 C 81 % 1013,9 hPa 0,0 l/m W-SW 0,00 h 0 W/m 8,6 km/h (2 Bft)
13.09.2011 23:00 17,8 C 84 % 1013,9 hPa 0,0 l/m SW 0,00 h 0 W/m 7,0 km/h (2 Bft)
14.09.2011 00:00 17,3 C 88 % 1013,8 hPa 0,0 l/m SW 0,00 h 0 W/m 3,6 km/h (1 Bft)
14.09.2011 01:00 17,4 C 89 % 1013,8 hPa 0,0 l/m N 0,00 h 0 W/m 2,5 km/h (1 Bft)
14.09.2011 02:00 17,0 C 91 % 1013,5 hPa 0,0 l/m N 0,00 h 0 W/m 2,9 km/h (1 Bft)
14.09.2011 03:00 16,5 C 94 % 1013,4 hPa 0,6 l/m N 0,00 h 0 W/m 1,1 km/h (0 Bft)
14.09.2011 04:00 16,2 C 97 % 1013,5 hPa 4,4 l/m SW 0,00 h 0 W/m 4,1 km/h (1 Bft)
14.09.2011 05:00 16,0 C 97 % 1013,3 hPa 11,2 l/m SW 0,00 h 0 W/m 4,7 km/h (1 Bft)
14.09.2011 06:00 14,3 C 97 % 1014,0 hPa 1,2 l/m N-NO 0,00 h 0 W/m 20,0 km/h (4 Bft)
14.09.2011 07:00 13,0 C 97 % 1014,9 hPa 0,2 l/m N-NO 0,00 h 9 W/m 17,4 km/h (3 Bft)
14.09.2011 08:00 12,3 C 96 % 1015,9 hPa 3,4 l/m N-NO 0,00 h 28 W/m 9,8 km/h (2 Bft)
14.09.2011 09:00 12,6 C 97 % 1016,7 hPa 0,4 l/m N 0,08 h 123 W/m 1,9 km/h (1 Bft)
14.09.2011 10:00 13,7 C 95 % 1017,6 hPa 0,0 l/m SW 0,08 h 184 W/m 4,7 km/h (1 Bft)
14.09.2011 11:00 14,9 C 91 % 1017,9 hPa 0,0 l/m SW 0,17 h 292 W/m 9,3 km/h (2 Bft)
14.09.2011 12:00 15,5 C 84 % 1017,8 hPa 0,0 l/m NW 0,08 h 184 W/m 6,3 km/h (2 Bft)
14.09.2011 13:00 16,5 C 78 % 1017,6 hPa 0,0 l/m W 0,33 h 449 W/m 9,8 km/h (2 Bft)
14.09.2011 14:00 17,7 C 65 % 1017,2 hPa 0,0 l/m W-NW 0,92 h 736 W/m 11,2 km/h (2 Bft)
14.09.2011 15:00 18,5 C 59 % 1016,9 hPa 0,0 l/m W 0,75 h 545 W/m 10,5 km/h (2 Bft)
14.09.2011 16:00 19,0 C 59 % 1016,6 hPa 0,0 l/m W 0,58 h 378 W/m 9,5 km/h (2 Bft)
14.09.2011 17:00 18,0 C 73 % 1016,4 hPa 0,0 l/m SW 0,00 h 100 W/m 11,2 km/h (2 Bft)
14.09.2011 18:00 16,8 C 80 % 1016,4 hPa 0,0 l/m SW 0,00 h 37 W/m 9,7 km/h (2 Bft)
14.09.2011 19:00 15,1 C 86 % 1016,7 hPa 0,0 l/m SW 0,08 h 13 W/m 5,9 km/h (2 Bft)
14.09.2011 20:00 14,6 C 87 % 1017,3 hPa 0,0 l/m SW 0,00 h 0 W/m 4,1 km/h (1 Bft)
14.09.2011 21:00 13,3 C 92 % 1017,9 hPa 0,0 l/m N 0,00 h 0 W/m 0,8 km/h (0 Bft)
14.09.2011 22:00 12,7 C 95 % 1018,1 hPa 0,0 l/m N 0,00 h 0 W/m 0,7 km/h (0 Bft)
14.09.2011 23:00 12,8 C 95 % 1018,4 hPa 0,0 l/m N 0,00 h 0 W/m 0,7 km/h (0 Bft)
15.09.2011 00:00 11,8 C 95 % 1018,5 hPa 0,0 l/m SW 0,00 h 0 W/m 2,8 km/h (1 Bft)
15.09.2011 01:00 10,8 C 91 % 1018,6 hPa 0,0 l/m N 0,00 h 0 W/m 2,0 km/h (1 Bft)
15.09.2011 02:00 10,0 C 94 % 1018,8 hPa 0,0 l/m N 0,00 h 0 W/m 1,5 km/h (1 Bft)
15.09.2011 03:00 9,6 C 94 % 1018,9 hPa 0,0 l/m N 0,00 h 0 W/m 2,3 km/h (1 Bft)
15.09.2011 04:00 9,4 C 94 % 1018,9 hPa 0,0 l/m SW 0,00 h 0 W/m 4,7 km/h (1 Bft)
15.09.2011 05:00 8,9 C 94 % 1018,9 hPa 0,0 l/m N 0,00 h 0 W/m 1,7 km/h (1 Bft)
15.09.2011 06:00 8,5 C 95 % 1018,7 hPa 0,0 l/m N 0,00 h 5 W/m 0,5 km/h (0 Bft)
15.09.2011 07:00 8,3 C 96 % 1018,9 hPa 0,0 l/m W 0,00 h 27 W/m 2,1 km/h (1 Bft)
15.09.2011 08:00 9,9 C 92 % 1019,2 hPa 0,0 l/m W 0,00 h 88 W/m 4,1 km/h (1 Bft)
15.09.2011 09:00 12,1 C 82 % 1019,4 hPa 0,0 l/m NO 0,75 h 297 W/m 8,6 km/h (2 Bft)
15.09.2011 10:00 14,1 C 71 % 1019,7 hPa 0,0 l/m O-NO 0,58 h 296 W/m 12,5 km/h (3 Bft)
15.09.2011 11:00 15,4 C 66 % 1019,7 hPa 0,0 l/m NO 0,08 h 166 W/m 11,4 km/h (2 Bft)
15.09.2011 12:00 16,8 C 64 % 1019,5 hPa 0,0 l/m O-SO 0,25 h 333 W/m 13,4 km/h (3 Bft)
15.09.2011 13:00 17,6 C 62 % 1019,2 hPa 0,0 l/m N-NO 0,75 h 662 W/m 11,0 km/h (2 Bft)
15.09.2011 14:00 18,3 C 61 % 1018,8 hPa 0,0 l/m O 0,83 h 721 W/m 10,2 km/h (2 Bft)
15.09.2011 15:00 19,0 C 60 % 1018,2 hPa 0,0 l/m O-NO 0,75 h 495 W/m 11,3 km/h (2 Bft)
15.09.2011 16:00 18,8 C 60 % 1018,1 hPa 0,0 l/m NO 0,42 h 290 W/m 9,2 km/h (2 Bft)
15.09.2011 17:00 18,6 C 60 % 1017,9 hPa 0,0 l/m NO 0,00 h 79 W/m 9,7 km/h (2 Bft)
15.09.2011 18:00 17,6 C 64 % 1018,1 hPa 0,0 l/m O-NO 0,00 h 48 W/m 5,9 km/h (2 Bft)
15.09.2011 19:00 14,8 C 81 % 1018,2 hPa 0,0 l/m N 0,08 h 13 W/m 0,9 km/h (0 Bft)
15.09.2011 20:00 12,8 C 88 % 1018,5 hPa 0,0 l/m N 0,00 h 0 W/m 0,5 km/h (0 Bft)
15.09.2011 21:00 11,8 C 92 % 1018,6 hPa 0,0 l/m N 0,00 h 0 W/m 0,4 km/h (0 Bft)
15.09.2011 22:00 11,4 C 93 % 1018,6 hPa 0,0 l/m N 0,00 h 0 W/m 2,5 km/h (1 Bft)
15.09.2011 23:00 11,2 C 92 % 1018,5 hPa 0,0 l/m N 0,00 h 0 W/m 3,5 km/h (1 Bft)
16.09.2011 00:00 10,8 C 93 % 1018,4 hPa 0,0 l/m N 0,00 h 0 W/m 3,1 km/h (1 Bft)
16.09.2011 01:00 10,4 C 94 % 1018,0 hPa 0,0 l/m NO 0,00 h 0 W/m 3,7 km/h (1 Bft)
16.09.2011 02:00 9,9 C 94 % 1017,7 hPa 0,0 l/m N-NO 0,00 h 0 W/m 4,4 km/h (1 Bft)
16.09.2011 03:00 9,4 C 95 % 1017,5 hPa 0,0 l/m N-NO 0,00 h 0 W/m 4,5 km/h (1 Bft)
16.09.2011 04:00 8,9 C 95 % 1017,5 hPa 0,0 l/m N-NO 0,00 h 0 W/m 4,4 km/h (1 Bft)
16.09.2011 05:00 8,5 C 96 % 1017,4 hPa 0,0 l/m N 0,00 h 0 W/m 2,9 km/h (1 Bft)
16.09.2011 06:00 8,0 C 96 % 1017,3 hPa 0,0 l/m N-NO 0,00 h 0 W/m 3,1 km/h (1 Bft)
16.09.2011 07:00 8,0 C 96 % 1017,6 hPa 0,0 l/m N 0,08 h 23 W/m 0,9 km/h (0 Bft)
16.09.2011 08:00 9,1 C 95 % 1017,5 hPa 0,0 l/m N 0,00 h 55 W/m 0,8 km/h (0 Bft)
16.09.2011 09:00 11,5 C 90 % 1017,6 hPa 0,0 l/m O-NO 0,75 h 275 W/m 2,5 km/h (1 Bft)
16.09.2011 10:00 12,8 C 92 % 1017,5 hPa 0,0 l/m S 0,17 h 250 W/m 6,0 km/h (2 Bft)
16.09.2011 11:00 14,2 C 90 % 1017,4 hPa 0,0 l/m S-SO 0,42 h 298 W/m 7,0 km/h (2 Bft)
16.09.2011 12:00 16,9 C 84 % 1016,8 hPa 0,0 l/m S 0,42 h 353 W/m 6,4 km/h (2 Bft)
16.09.2011 13:00 19,9 C 73 % 1016,3 hPa 0,0 l/m S 1,00 h 716 W/m 8,8 km/h (2 Bft)
16.09.2011 14:00 21,7 C 69 % 1015,5 hPa 0,0 l/m S-SW 1,00 h 668 W/m 9,5 km/h (2 Bft)
16.09.2011 15:00 22,7 C 67 % 1014,9 hPa 0,0 l/m S-SW 0,75 h 532 W/m 8,0 km/h (2 Bft)
16.09.2011 16:00 23,0 C 66 % 1014,3 hPa 0,0 l/m S-SW 0,58 h 296 W/m 9,9 km/h (2 Bft)
16.09.2011 17:00 22,2 C 68 % 1014,0 hPa 0,0 l/m SW 0,08 h 108 W/m 9,8 km/h (2 Bft)
16.09.2011 18:00 20,2 C 77 % 1014,1 hPa 0,0 l/m SW 0,00 h 51 W/m 3,9 km/h (1 Bft)
16.09.2011 19:00 18,0 C 87 % 1014,0 hPa 0,0 l/m N 0,00 h 12 W/m 0,4 km/h (0 Bft)
16.09.2011 20:00 16,4 C 91 % 1014,7 hPa 0,0 l/m N 0,00 h 0 W/m 0,4 km/h (0 Bft)
16.09.2011 21:00 16,7 C 90 % 1015,0 hPa 0,0 l/m SW 0,00 h 0 W/m 1,2 km/h (1 Bft)
16.09.2011 22:00 15,8 C 92 % 1014,8 hPa 0,0 l/m N 0,00 h 0 W/m 0,4 km/h (0 Bft)
16.09.2011 23:00 15,3 C 95 % 1015,1 hPa 1,2 l/m W-SW 0,00 h 0 W/m 1,6 km/h (1 Bft)
17.09.2011 00:00 15,5 C 96 % 1015,6 hPa 3,4 l/m S 0,00 h 0 W/m 6,4 km/h (2 Bft)
17.09.2011 01:00 15,6 C 98 % 1015,8 hPa 0,0 l/m S-SW 0,00 h 0 W/m 13,3 km/h (3 Bft)
17.09.2011 02:00 15,5 C 98 % 1015,7 hPa 0,0 l/m S-SW 0,00 h 0 W/m 16,1 km/h (3 Bft)
17.09.2011 03:00 15,3 C 97 % 1015,5 hPa 0,0 l/m S-SW 0,00 h 0 W/m 10,3 km/h (2 Bft)
17.09.2011 04:00 15,1 C 96 % 1015,1 hPa 0,2 l/m S-SO 0,00 h 0 W/m 5,2 km/h (1 Bft)
17.09.2011 05:00 14,9 C 97 % 1014,7 hPa 0,0 l/m S-SW 0,00 h 0 W/m 7,8 km/h (2 Bft)
17.09.2011 06:00 14,7 C 98 % 1014,3 hPa 0,0 l/m S 0,00 h 0 W/m 5,6 km/h (1 Bft)
17.09.2011 07:00 14,8 C 98 % 1014,3 hPa 0,2 l/m S 0,00 h 29 W/m 4,4 km/h (1 Bft)
17.09.2011 08:00 15,1 C 97 % 1014,0 hPa 0,0 l/m S-SW 0,00 h 55 W/m 8,2 km/h (2 Bft)
17.09.2011 09:00 16,6 C 94 % 1013,9 hPa 0,0 l/m S-SW 0,58 h 251 W/m 13,7 km/h (3 Bft)
17.09.2011 10:00 18,3 C 89 % 1013,6 hPa 0,0 l/m SW 0,58 h 300 W/m 14,4 km/h (3 Bft)
17.09.2011 11:00 19,5 C 86 % 1013,0 hPa 0,0 l/m S 0,17 h 270 W/m 14,0 km/h (3 Bft)
17.09.2011 12:00 20,3 C 83 % 1012,4 hPa 0,0 l/m SW 0,17 h 398 W/m 12,9 km/h (3 Bft)
17.09.2011 13:00 22,2 C 77 % 1011,8 hPa 0,0 l/m W-SW 0,83 h 521 W/m 16,1 km/h (3 Bft)
17.09.2011 14:00 22,1 C 71 % 1011,1 hPa 0,0 l/m W-SW 0,08 h 309 W/m 13,6 km/h (3 Bft)
17.09.2011 15:00 20,8 C 74 % 1010,6 hPa 0,0 l/m W 0,00 h 184 W/m 13,1 km/h (3 Bft)
17.09.2011 16:00 21,0 C 76 % 1009,9 hPa 0,0 l/m W-SW 0,17 h 230 W/m 10,5 km/h (2 Bft)
17.09.2011 17:00 20,5 C 76 % 1009,6 hPa 0,0 l/m W-SW 0,00 h 125 W/m 9,9 km/h (2 Bft)
17.09.2011 18:00 19,7 C 74 % 1009,2 hPa 0,0 l/m W-SW 0,00 h 57 W/m 11,0 km/h (2 Bft)
17.09.2011 19:00 18,5 C 84 % 1009,2 hPa 0,0 l/m SW 0,08 h 13 W/m 11,3 km/h (2 Bft)
17.09.2011 20:00 18,0 C 84 % 1008,9 hPa 0,0 l/m SW 0,00 h 0 W/m 11,8 km/h (2 Bft)
17.09.2011 21:00 17,7 C 87 % 1008,8 hPa 0,0 l/m W-SW 0,00 h 0 W/m 12,2 km/h (2 Bft)
17.09.2011 22:00 17,5 C 88 % 1008,7 hPa 0,0 l/m SW 0,00 h 0 W/m 12,2 km/h (2 Bft)
17.09.2011 23:00 16,4 C 91 % 1007,7 hPa 0,6 l/m W 0,00 h 0 W/m 6,2 km/h (2 Bft)
18.09.2011 00:00 15,2 C 96 % 1007,0 hPa 0,0 l/m N 0,00 h 0 W/m 0,5 km/h (0 Bft)
18.09.2011 01:00 14,5 C 97 % 1006,7 hPa 0,0 l/m W 0,00 h 0 W/m 3,1 km/h (1 Bft)
18.09.2011 02:00 15,0 C 97 % 1005,9 hPa 0,4 l/m O-SO 0,00 h 0 W/m 4,7 km/h (1 Bft)
18.09.2011 03:00 14,8 C 97 % 1005,4 hPa 1,4 l/m SW 0,00 h 0 W/m 6,0 km/h (2 Bft)
18.09.2011 04:00 14,4 C 98 % 1004,7 hPa 0,0 l/m SW 0,00 h 0 W/m 3,2 km/h (1 Bft)
18.09.2011 05:00 14,4 C 98 % 1004,4 hPa 1,6 l/m SW 0,00 h 0 W/m 4,9 km/h (1 Bft)
18.09.2011 06:00 14,0 C 98 % 1004,0 hPa 5,4 l/m SW 0,00 h 0 W/m 9,5 km/h (2 Bft)
18.09.2011 07:00 13,1 C 98 % 1003,9 hPa 3,6 l/m S-SW 0,00 h 8 W/m 11,4 km/h (2 Bft)
18.09.2011 08:00 12,7 C 98 % 1003,6 hPa 2,8 l/m S 0,00 h 17 W/m 12,2 km/h (2 Bft)
18.09.2011 09:00 12,7 C 98 % 1003,5 hPa 1,2 l/m W-SW 0,00 h 33 W/m 11,4 km/h (2 Bft)
18.09.2011 10:00 12,5 C 97 % 1004,2 hPa 0,6 l/m W 0,00 h 36 W/m 15,4 km/h (3 Bft)
18.09.2011 11:00 10,4 C 95 % 1006,1 hPa 3,0 l/m W-NW 0,00 h 38 W/m 17,7 km/h (3 Bft)
18.09.2011 12:00 9,7 C 95 % 1007,4 hPa 1,2 l/m W-SW 0,00 h 108 W/m 11,1 km/h (2 Bft)
18.09.2011 13:00 9,9 C 96 % 1007,3 hPa 0,8 l/m SW 0,00 h 97 W/m 16,0 km/h (3 Bft)
18.09.2011 14:00 9,4 C 96 % 1007,6 hPa 0,0 l/m SW 0,00 h 123 W/m 22,5 km/h (4 Bft)
18.09.2011 15:00 9,2 C 96 % 1008,1 hPa 0,2 l/m W-SW 0,00 h 74 W/m 15,8 km/h (3 Bft)
18.09.2011 16:00 9,4 C 96 % 1008,1 hPa 0,0 l/m SW 0,00 h 103 W/m 14,8 km/h (3 Bft)
18.09.2011 17:00 9,5 C 94 % 1008,2 hPa 0,0 l/m SW 0,00 h 70 W/m 15,4 km/h (3 Bft)
18.09.2011 18:00 9,1 C 94 % 1008,4 hPa 0,0 l/m SW 0,00 h 16 W/m 11,6 km/h (2 Bft)
18.09.2011 19:00 8,8 C 96 % 1008,7 hPa 0,0 l/m SW 0,00 h 6 W/m 7,6 km/h (2 Bft)
18.09.2011 20:00 8,7 C 96 % 1009,0 hPa 0,0 l/m SW 0,00 h 0 W/m 9,4 km/h (2 Bft)
18.09.2011 21:00 8,6 C 96 % 1009,5 hPa 0,0 l/m SW 0,00 h 0 W/m 4,8 km/h (1 Bft)
18.09.2011 22:00 8,7 C 96 % 1009,9 hPa 0,0 l/m N 0,00 h 0 W/m 3,9 km/h (1 Bft)
18.09.2011 23:00 8,5 C 96 % 1009,9 hPa 0,0 l/m S 0,00 h 0 W/m 4,1 km/h (1 Bft)
Min-Datum _ 16.09.11 12.09.11 18.09.11 - - - - 13.09.11
_ Min-Zeit 06:50 14:00 08:35 - - - - 01:15
Minimum _ 7,8 C 50 % 1003,1 hPa - - - - 0,0 km/h (0 Bft)
Max-Datum _ 13.09.11 18.09.11 15.09.11 14.09.11 - 12.09.11 13.09.11 18.09.11
_ Max-Zeit 15:40 09:40 11:30 05:00 - 07:05 13:35 10:45
Maximum _ 23,7 C 99 % 1019,9 hPa 11,2 l/m - 0,08 h 974 W/m 35,4 km/h
W (5 Bft)
Durchschnitt _ 15,4 C 85 % 1014,2 hPa #49,6 l/m SW #31:00 h 246 W/m 9,1 km/h (2 Bft)